Das ist die Wetter- und Hausseite der Bittkau's aus Magdeburg Ottersleben


Hier werden aktuelle Daten aus der privaten Wetterstation und

andere lokale Wettervorhersagen bereitgestellt




Thunder radar more information blitzortung!


Rain radar more information rain snow radar



Es ist keine erhöhte Aufmerksamkeit aufgrund des Wetters notwendig.    Es gibt keine Warnungen.

METAR-Meldungen aus der Umgebung

   
EDDP - Leipzig
Aktualisierung: 24.05.2019 1:50
Klar  
Klar  
   Wind: WNW 14.8 km/h
Wind: WNW 14.8 km/h
Temperatur: 22°C
Taupunkt: 8°C
Luftfeuchte: 41%
Luftdruck: 1013 hPa
Sichtbarkeit: More than 10 km
Bewölkung: Klar
EDDP 241150Z 30008KT 250V320 CAVOK 22/08 Q1013 NOSIG
EDDC - Dresden
Aktualisierung: 24.05.2019 1:50
Klar  
Klar  
   Wind: NW 9.3 km/h
Wind: NW 9.3 km/h
Temperatur: 20°C
Taupunkt: 6°C
Luftfeuchte: 40%
Luftdruck: 1014 hPa
Sichtbarkeit: More than 10 km
Bewölkung: Klar
EDDC 241150Z 32005KT 240V010 CAVOK 20/06 Q1014 NOSIG
EDDE - Erfurt
Aktualisierung: 24.05.2019 1:50
Klar  
Klar  
   Wind: WNW 11.1 km/h
Wind: WNW 11.1 km/h
Temperatur: 20°C
Taupunkt: 8°C
Luftfeuchte: 46%
Luftdruck: 1015 hPa
Sichtbarkeit: More than 10 km
Bewölkung: Klar
EDDE 241150Z 29006KT 250V330 CAVOK 20/08 Q1015 NOSIG
EDVE - Braunschweig
Aktualisierung: 24.05.2019 1:50
Klar  
Klar  
   Wind: Westen 16.7 km/h
Wind: Westen 16.7 km/h
Temperatur: 21°C
Taupunkt: 7°C
Luftfeuchte: 40%
Luftdruck: 1013 hPa
Sichtbarkeit: More than 10 km
Bewölkung: Klar
EDVE 241150Z 26009KT 230V300 CAVOK 21/07 Q1013
EDDV - Hannover
Aktualisierung: 24.05.2019 1:50
Bewölkt  
Bewölkt  
   Wind: WSW 16.7 km/h
Wind: WSW 16.7 km/h
Temperatur: 21°C
Taupunkt: 9°C
Luftfeuchte: 46%
Luftdruck: 1013 hPa
Bewölkt: Bewölkt
Sichtbarkeit: More than 10 km
Bewölkung: Teilweise bewölkt 1463 m,
Bewölkt 8534.4 m
EDDV 241150Z 25009KT 210V300 9999 SCT048 OVC280 21/09 Q1013 NOSIG
EDDT - Berlin
Aktualisierung: 24.05.2019 1:50
Klar  
Klar  
   Wind: SW 18.5 km/h
Wind: SW 18.5 km/h
Temperatur: 22°C
Taupunkt: 8°C
Luftfeuchte: 41%
Luftdruck: 1013 hPa
Sichtbarkeit: More than 10 km
Bewölkung: Klar
EDDT 241150Z 23010KT 200V280 CAVOK 22/08 Q1013 NOSIG
EDDE - Schwerin
Aktualisierung: 24.05.2019 1:50
Klar  
Klar  
   Wind: WNW 11.1 km/h
Wind: WNW 11.1 km/h
Temperatur: 20°C
Taupunkt: 8°C
Luftfeuchte: 46%
Luftdruck: 1015 hPa
Sichtbarkeit: More than 10 km
Bewölkung: Klar
EDDE 241150Z 29006KT 250V330 CAVOK 20/08 Q1015 NOSIG
EDHI - Hamburg
Aktualisierung: 24.05.2019 1:50
Klar  
Klar  
   Wind: WSW 24.1 km/h
Wind: WSW 24.1 km/h
Temperatur: 21°C
Taupunkt: 9°C
Luftfeuchte: 46%
Luftdruck: 1011 hPa
Sichtbarkeit: More than 10 km
Bewölkung: Klar
EDHI 241150Z 24013KT 210V280 CAVOK 21/09 Q1011
EDDK - Köln-Bonn
Aktualisierung: 24.05.2019 1:50
Klar  
Klar  
   Wind: variiert 7.4 km/h
Wind: variiert 7.4 km/h
Temperatur: 23°C
Taupunkt: 6°C
Luftfeuchte: 33%
Luftdruck: 1015 hPa
Sichtbarkeit: More than 10 km
Bewölkung: Klar
EDDK 241150Z VRB04KT CAVOK 23/06 Q1015 NOSIG
EDHL - Lübeck-Blankensee
Aktualisierung: 24.05.2019 1:50
Klar  
Klar  
   Wind: WSW 25.9 km/h
Wind: WSW 25.9 km/h
Temperatur: 21°C
Taupunkt: 9°C
Luftfeuchte: 46%
Luftdruck: 1011 hPa
Sichtbarkeit: More than 10 km
Bewölkung: Klar
EDHL 241150Z 24014KT 200V280 CAVOK 21/09 Q1011
  

Script entwickelt von  Saratoga-weather.org Angepasst für das Template von  Weerstation Leuven

Sie finden die Wetterinfo auch auf:

Wetternetzwerk Deutschland

European Weather Network

Weather Underground

Regionalwetter-SA

wetter.com

wxforum.de

Genutzte Hardware, Software und WEB Anbieter:

Wetterstation
Ventus W928-Ultimate

Wetterprogramm
Meteohub

WetterComputer
RaspberryPI

Anbieter
WEB Provider One.com

Ventus W928-Ultimate

Meteohub

RaspberryPI

WEB Provider One.com